createdAt,value
2022-10-13T00:00:19.130Z,1016.52
2022-10-13T00:01:19.173Z,1016.49
2022-10-13T00:02:19.453Z,1016.46
2022-10-13T00:03:19.111Z,1016.47
2022-10-13T00:04:19.096Z,1016.50
2022-10-13T00:05:19.100Z,1016.44
2022-10-13T00:06:19.115Z,1016.47
2022-10-13T00:07:19.084Z,1016.50
2022-10-13T00:08:19.081Z,1016.47
2022-10-13T00:09:19.080Z,1016.47
2022-10-13T00:10:19.081Z,1016.43
2022-10-13T00:11:19.075Z,1016.46
2022-10-13T00:12:19.454Z,1016.47
2022-10-13T00:13:19.075Z,1016.47
2022-10-13T00:14:19.070Z,1016.47
2022-10-13T00:15:19.074Z,1016.48
2022-10-13T00:16:19.089Z,1016.47
2022-10-13T00:17:19.063Z,1016.47
2022-10-13T00:18:19.062Z,1016.49
2022-10-13T00:19:19.058Z,1016.47
2022-10-13T00:20:19.044Z,1016.45
2022-10-13T00:21:19.043Z,1016.45
2022-10-13T00:22:19.454Z,1016.41
2022-10-13T00:23:19.033Z,1016.44
2022-10-13T00:24:19.044Z,1016.41
2022-10-13T00:25:19.040Z,1016.41
2022-10-13T00:26:19.054Z,1016.40
2022-10-13T00:27:19.034Z,1016.37
2022-10-13T00:28:19.098Z,1016.39
2022-10-13T00:29:19.025Z,1016.36
2022-10-13T00:30:19.016Z,1016.38
2022-10-13T00:31:19.013Z,1016.37
2022-10-13T00:32:19.416Z,1016.34
2022-10-13T00:33:19.003Z,1016.37
2022-10-13T00:34:19.003Z,1016.43
2022-10-13T00:35:19.000Z,1016.37
2022-10-13T00:36:18.994Z,1016.33
2022-10-13T00:37:18.999Z,1016.36
2022-10-13T00:38:18.988Z,1016.34
2022-10-13T00:39:18.985Z,1016.33
2022-10-13T00:40:18.998Z,1016.33
2022-10-13T00:41:18.985Z,1016.34
2022-10-13T00:42:19.385Z,1016.33
2022-10-13T00:43:18.969Z,1016.32
2022-10-13T00:44:18.971Z,1016.35
2022-10-13T00:45:19.009Z,1016.36
2022-10-13T00:46:18.975Z,1016.34
2022-10-13T00:47:18.960Z,1016.32
2022-10-13T00:48:18.976Z,1016.36
2022-10-13T00:49:18.966Z,1016.35
2022-10-13T00:50:18.958Z,1016.31
2022-10-13T00:51:18.955Z,1016.34
2022-10-13T00:52:19.325Z,1016.31
2022-10-13T00:53:18.944Z,1016.30
2022-10-13T00:54:18.948Z,1016.28
2022-10-13T00:55:18.944Z,1016.30
2022-10-13T00:56:18.937Z,1016.28
2022-10-13T00:57:18.940Z,1016.28
2022-10-13T00:58:18.927Z,1016.26
2022-10-13T00:59:18.928Z,1016.30
2022-10-13T01:00:18.924Z,1016.27
2022-10-13T01:01:18.918Z,1016.25
2022-10-13T01:02:19.295Z,1016.25
2022-10-13T01:03:18.912Z,1016.28
2022-10-13T01:04:18.923Z,1016.28
2022-10-13T01:05:18.913Z,1016.26
2022-10-13T01:06:23.454Z,1016.24
2022-10-13T01:07:18.922Z,1016.22
2022-10-13T01:08:18.903Z,1016.20
2022-10-13T01:09:18.890Z,1016.19
2022-10-13T01:10:18.890Z,1016.15
2022-10-13T01:11:18.885Z,1016.13
2022-10-13T01:12:19.129Z,1016.16
2022-10-13T01:13:18.895Z,1016.17
2022-10-13T01:14:18.883Z,1016.11
2022-10-13T01:15:18.932Z,1016.06
2022-10-13T01:16:18.880Z,1016.07
2022-10-13T01:17:18.874Z,1016.10
2022-10-13T01:18:18.872Z,1016.05
2022-10-13T01:19:18.865Z,1016.00
2022-10-13T01:20:18.884Z,1016.00
2022-10-13T01:21:18.866Z,1016.01
2022-10-13T01:22:19.162Z,1015.97
2022-10-13T01:23:18.854Z,1015.95
2022-10-13T01:24:18.844Z,1015.93
2022-10-13T01:25:18.859Z,1015.89
2022-10-13T01:26:18.849Z,1015.90
2022-10-13T01:27:18.848Z,1015.90
2022-10-13T01:28:18.882Z,1015.91
2022-10-13T01:29:18.835Z,1015.91
2022-10-13T01:30:18.904Z,1015.90
2022-10-13T01:31:18.829Z,1015.84
2022-10-13T01:32:19.129Z,1015.89
2022-10-13T01:33:18.827Z,1015.88
2022-10-13T01:34:18.826Z,1015.86
2022-10-13T01:35:18.822Z,1015.84
2022-10-13T01:36:18.854Z,1015.79
2022-10-13T01:37:18.820Z,1015.80
2022-10-13T01:38:18.807Z,1015.80
2022-10-13T01:39:18.798Z,1015.84
2022-10-13T01:40:18.799Z,1015.81
2022-10-13T01:41:18.795Z,1015.80
2022-10-13T01:42:19.152Z,1015.79
2022-10-13T01:43:18.791Z,1015.80
2022-10-13T01:44:18.786Z,1015.81
2022-10-13T01:45:18.795Z,1015.78
2022-10-13T01:46:18.789Z,1015.76
2022-10-13T01:47:18.779Z,1015.78
2022-10-13T01:48:18.770Z,1015.78
2022-10-13T01:49:18.778Z,1015.78
2022-10-13T01:50:18.775Z,1015.76
2022-10-13T01:51:18.767Z,1015.74
2022-10-13T01:52:19.136Z,1015.74
2022-10-13T01:53:18.753Z,1015.75
2022-10-13T01:54:18.766Z,1015.75
2022-10-13T01:55:18.761Z,1015.72
2022-10-13T01:56:18.757Z,1015.71
2022-10-13T01:57:18.746Z,1015.71
2022-10-13T01:58:18.747Z,1015.68
2022-10-13T01:59:18.755Z,1015.68
2022-10-13T02:00:18.741Z,1015.67
2022-10-13T02:01:18.728Z,1015.68
2022-10-13T02:02:19.277Z,1015.70
2022-10-13T02:03:18.732Z,1015.71
2022-10-13T02:04:18.730Z,1015.64
2022-10-13T02:05:18.728Z,1015.67
2022-10-13T02:06:18.721Z,1015.62
2022-10-13T02:07:18.718Z,1015.68
2022-10-13T02:08:18.737Z,1015.60
2022-10-13T02:09:18.714Z,1015.59
2022-10-13T02:10:18.700Z,1015.62
2022-10-13T02:11:18.709Z,1015.59
2022-10-13T02:12:18.926Z,1015.58
2022-10-13T02:13:18.695Z,1015.61
2022-10-13T02:14:18.708Z,1015.61
2022-10-13T02:15:18.691Z,1015.59
2022-10-13T02:16:18.690Z,1015.61
2022-10-13T02:17:18.684Z,1015.62
2022-10-13T02:18:18.688Z,1015.56
2022-10-13T02:19:18.675Z,1015.57
2022-10-13T02:20:18.669Z,1015.55
2022-10-13T02:21:18.671Z,1015.54
2022-10-13T02:22:19.142Z,1015.51
2022-10-13T02:23:18.672Z,1015.51
2022-10-13T02:24:18.731Z,1015.48
2022-10-13T02:25:18.661Z,1015.50
2022-10-13T02:26:18.663Z,1015.48
2022-10-13T02:27:18.651Z,1015.50
2022-10-13T02:28:18.672Z,1015.52
2022-10-13T02:29:18.645Z,1015.52
2022-10-13T02:30:18.657Z,1015.49
2022-10-13T02:31:18.637Z,1015.52
2022-10-13T02:32:19.453Z,1015.53
2022-10-13T02:33:18.638Z,1015.51
2022-10-13T02:34:18.631Z,1015.51
2022-10-13T02:35:18.626Z,1015.51
2022-10-13T02:36:18.618Z,1015.50
2022-10-13T02:37:18.644Z,1015.51
2022-10-13T02:38:18.615Z,1015.48
2022-10-13T02:39:18.619Z,1015.51
2022-10-13T02:40:18.627Z,1015.49
2022-10-13T02:41:18.615Z,1015.48
2022-10-13T02:42:19.199Z,1015.51
2022-10-13T02:43:18.600Z,1015.53
2022-10-13T02:44:18.607Z,1015.53
2022-10-13T02:45:18.615Z,1015.55
2022-10-13T02:46:18.593Z,1015.57
2022-10-13T02:47:18.593Z,1015.56
2022-10-13T02:48:18.584Z,1015.57
2022-10-13T02:49:18.581Z,1015.54
2022-10-13T02:50:18.576Z,1015.58
2022-10-13T02:51:18.583Z,1015.55
2022-10-13T02:52:18.864Z,1015.58
2022-10-13T02:53:18.571Z,1015.55
2022-10-13T02:54:18.568Z,1015.54
2022-10-13T02:55:18.577Z,1015.56
2022-10-13T02:56:18.579Z,1015.55
2022-10-13T02:57:18.563Z,1015.55
2022-10-13T02:58:18.550Z,1015.55
2022-10-13T02:59:18.549Z,1015.58
2022-10-13T03:00:18.563Z,1015.58
2022-10-13T03:01:18.547Z,1015.56
2022-10-13T03:02:19.126Z,1015.57
2022-10-13T03:03:18.533Z,1015.59
2022-10-13T03:04:18.534Z,1015.57
2022-10-13T03:05:18.544Z,1015.57
2022-10-13T03:06:18.528Z,1015.54
2022-10-13T03:07:18.534Z,1015.56
2022-10-13T03:08:18.525Z,1015.54
2022-10-13T03:09:18.521Z,1015.56
2022-10-13T03:10:18.520Z,1015.54
2022-10-13T03:11:18.520Z,1015.50
2022-10-13T03:12:19.040Z,1015.50
2022-10-13T03:13:18.611Z,1015.48
2022-10-13T03:14:18.556Z,1015.49
2022-10-13T03:15:18.501Z,1015.47
2022-10-13T03:16:18.496Z,1015.48
2022-10-13T03:17:18.489Z,1015.44
2022-10-13T03:18:18.494Z,1015.50
2022-10-13T03:19:18.495Z,1015.39
2022-10-13T03:20:18.494Z,1015.41
2022-10-13T03:21:18.497Z,1015.36
2022-10-13T03:22:18.849Z,1015.32
2022-10-13T03:23:18.491Z,1015.35
2022-10-13T03:24:18.482Z,1015.32
2022-10-13T03:25:18.486Z,1015.31
2022-10-13T03:26:18.461Z,1015.27
2022-10-13T03:27:18.473Z,1015.31
2022-10-13T03:28:18.563Z,1015.32
2022-10-13T03:29:18.463Z,1015.33
2022-10-13T03:30:18.458Z,1015.31
2022-10-13T03:31:18.449Z,1015.29
2022-10-13T03:32:18.916Z,1015.26
2022-10-13T03:33:18.450Z,1015.24
2022-10-13T03:34:18.451Z,1015.21
2022-10-13T03:35:18.444Z,1015.18
2022-10-13T03:36:18.440Z,1015.17
2022-10-13T03:37:18.436Z,1015.11
2022-10-13T03:38:18.434Z,1015.15
2022-10-13T03:39:18.423Z,1015.12
2022-10-13T03:40:18.423Z,1015.15
2022-10-13T03:41:18.416Z,1015.16
2022-10-13T03:42:18.904Z,1015.13
2022-10-13T03:43:18.411Z,1015.10
2022-10-13T03:44:18.426Z,1015.13
2022-10-13T03:45:18.448Z,1015.12
2022-10-13T03:46:18.413Z,1015.06
2022-10-13T03:47:18.400Z,1015.05
2022-10-13T03:48:18.411Z,1015.07
2022-10-13T03:49:18.396Z,1015.09
2022-10-13T03:50:18.391Z,1015.09
2022-10-13T03:51:18.394Z,1015.03
2022-10-13T03:52:18.809Z,1015.05
2022-10-13T03:53:18.381Z,1015.06
2022-10-13T03:54:18.376Z,1015.05
2022-10-13T03:55:18.428Z,1015.04
2022-10-13T03:56:18.375Z,1015.02
2022-10-13T03:57:18.380Z,1014.99
2022-10-13T03:58:18.364Z,1014.99
2022-10-13T03:59:18.369Z,1015.00
2022-10-13T04:00:18.379Z,1014.97
2022-10-13T04:01:18.426Z,1014.99
2022-10-13T04:02:18.741Z,1015.00
2022-10-13T04:03:18.355Z,1015.00
2022-10-13T04:04:18.358Z,1014.98
2022-10-13T04:05:18.382Z,1015.00
2022-10-13T04:06:18.359Z,1015.04
2022-10-13T04:07:18.384Z,1015.07
2022-10-13T04:08:18.397Z,1015.01
2022-10-13T04:09:18.392Z,1015.04
2022-10-13T04:10:18.363Z,1015.05
2022-10-13T04:11:18.363Z,1015.04
2022-10-13T04:12:20.865Z,1015.07
2022-10-13T04:13:18.360Z,1015.07
2022-10-13T04:14:18.366Z,1015.02
2022-10-13T04:15:18.320Z,1015.00
2022-10-13T04:16:18.377Z,1015.00
2022-10-13T04:17:18.322Z,1015.02
2022-10-13T04:18:18.308Z,1015.05
2022-10-13T04:19:18.312Z,1015.03
2022-10-13T04:20:18.292Z,1015.02
2022-10-13T04:21:18.300Z,1015.04
2022-10-13T04:22:18.864Z,1015.01
2022-10-13T04:23:18.290Z,1014.91
2022-10-13T04:24:18.278Z,1014.94
2022-10-13T04:25:18.282Z,1014.95
2022-10-13T04:26:18.286Z,1014.94
2022-10-13T04:27:18.270Z,1014.90
2022-10-13T04:28:18.321Z,1014.87
2022-10-13T04:29:18.268Z,1014.88
2022-10-13T04:30:18.259Z,1014.91
2022-10-13T04:31:18.266Z,1014.92
2022-10-13T04:32:18.615Z,1014.94
2022-10-13T04:33:18.266Z,1014.88
2022-10-13T04:34:18.257Z,1014.86
2022-10-13T04:35:18.250Z,1014.84
2022-10-13T04:36:18.302Z,1014.88
2022-10-13T04:37:18.249Z,1014.87
2022-10-13T04:38:18.253Z,1014.88
2022-10-13T04:39:18.233Z,1014.85
2022-10-13T04:40:18.235Z,1014.86
2022-10-13T04:41:18.230Z,1014.82
2022-10-13T04:42:18.619Z,1014.87
2022-10-13T04:43:18.239Z,1014.87
2022-10-13T04:44:18.224Z,1014.81
2022-10-13T04:45:18.220Z,1014.82
2022-10-13T04:46:18.217Z,1014.82
2022-10-13T04:47:18.206Z,1014.84
2022-10-13T04:48:18.228Z,1014.83
2022-10-13T04:49:18.206Z,1014.84
2022-10-13T04:50:18.204Z,1014.82
2022-10-13T04:51:18.201Z,1014.84
2022-10-13T04:52:18.504Z,1014.85
2022-10-13T04:53:19.288Z,1014.84
2022-10-13T04:54:18.204Z,1014.84
2022-10-13T04:55:18.203Z,1014.76
2022-10-13T04:56:18.176Z,1014.75
2022-10-13T04:57:18.176Z,1014.79
2022-10-13T04:58:18.181Z,1014.81
2022-10-13T04:59:18.183Z,1014.86
2022-10-13T05:00:18.164Z,1014.84
2022-10-13T05:01:21.811Z,1014.91
2022-10-13T05:02:18.485Z,1014.87
2022-10-13T05:03:18.162Z,1014.90
2022-10-13T05:04:18.178Z,1014.87
2022-10-13T05:05:18.147Z,1014.82
2022-10-13T05:06:18.143Z,1014.67
2022-10-13T05:07:18.736Z,1014.68
2022-10-13T05:08:18.153Z,1014.69
2022-10-13T05:09:18.140Z,1014.65
2022-10-13T05:10:18.140Z,1014.63
2022-10-13T05:11:18.145Z,1014.60
2022-10-13T05:12:18.412Z,1014.54
2022-10-13T05:13:18.132Z,1014.51
2022-10-13T05:14:18.272Z,1014.56
2022-10-13T05:15:18.120Z,1014.65
2022-10-13T05:16:18.121Z,1014.74
2022-10-13T05:17:18.117Z,1014.75
2022-10-13T05:18:18.121Z,1014.78
2022-10-13T05:19:18.114Z,1014.76
2022-10-13T05:20:18.131Z,1014.72
2022-10-13T05:21:18.105Z,1014.78
2022-10-13T05:22:18.466Z,1014.83
2022-10-13T05:23:18.099Z,1014.81
2022-10-13T05:24:18.087Z,1014.83
2022-10-13T05:25:18.097Z,1014.80
2022-10-13T05:26:18.120Z,1014.67
2022-10-13T05:27:18.083Z,1014.70
2022-10-13T05:28:18.140Z,1014.64
2022-10-13T05:29:18.075Z,1014.66
2022-10-13T05:30:18.074Z,1014.63
2022-10-13T05:31:18.081Z,1014.69
2022-10-13T05:32:18.516Z,1014.69
2022-10-13T05:33:18.074Z,1014.66
2022-10-13T05:34:18.066Z,1014.63
2022-10-13T05:35:18.059Z,1014.59
2022-10-13T05:36:18.077Z,1014.63
2022-10-13T05:37:18.060Z,1014.68
2022-10-13T05:38:20.440Z,1014.68
2022-10-13T05:39:18.057Z,1014.72
2022-10-13T05:40:18.055Z,1014.61
2022-10-13T05:41:18.052Z,1014.60
2022-10-13T05:42:18.490Z,1014.48
2022-10-13T05:43:18.034Z,1014.47
2022-10-13T05:44:18.031Z,1014.49
2022-10-13T05:45:18.039Z,1014.48
2022-10-13T05:46:18.034Z,1014.47
2022-10-13T05:47:18.028Z,1014.49
2022-10-13T05:48:18.029Z,1014.49
2022-10-13T05:49:18.076Z,1014.52
2022-10-13T05:50:18.018Z,1014.47
2022-10-13T05:51:18.030Z,1014.47
2022-10-13T05:52:18.431Z,1014.47
2022-10-13T05:53:18.016Z,1014.44
2022-10-13T05:54:18.009Z,1014.47
2022-10-13T05:55:18.011Z,1014.49
2022-10-13T05:56:18.007Z,1014.48
2022-10-13T05:57:17.997Z,1014.49
2022-10-13T05:58:18.004Z,1014.51
2022-10-13T05:59:17.996Z,1014.46
2022-10-13T06:00:18.003Z,1014.43
2022-10-13T06:01:18.001Z,1014.38
2022-10-13T06:02:18.297Z,1014.40
2022-10-13T06:03:17.995Z,1014.39
2022-10-13T06:04:18.016Z,1014.40
2022-10-13T06:05:17.988Z,1014.40
2022-10-13T06:06:17.983Z,1014.39
2022-10-13T06:07:17.975Z,1014.39
2022-10-13T06:08:17.989Z,1014.40
2022-10-13T06:09:17.997Z,1014.40
2022-10-13T06:10:17.974Z,1014.40
2022-10-13T06:11:17.975Z,1014.35
2022-10-13T06:12:18.232Z,1014.30
2022-10-13T06:13:17.970Z,1014.29
2022-10-13T06:14:17.969Z,1014.29
2022-10-13T06:15:17.969Z,1014.30
2022-10-13T06:16:17.964Z,1014.33
2022-10-13T06:17:17.963Z,1014.33
2022-10-13T06:18:17.963Z,1014.36
2022-10-13T06:19:17.955Z,1014.35
2022-10-13T06:20:18.042Z,1014.35
2022-10-13T06:21:17.950Z,1014.34
2022-10-13T06:22:18.450Z,1014.37
2022-10-13T06:23:17.948Z,1014.40
2022-10-13T06:24:17.962Z,1014.38
2022-10-13T06:25:17.970Z,1014.35
2022-10-13T06:26:18.228Z,1014.31
2022-10-13T06:27:17.940Z,1014.33
2022-10-13T06:28:17.983Z,1014.31
2022-10-13T06:29:17.940Z,1014.33
2022-10-13T06:30:17.933Z,1014.30
2022-10-13T06:31:17.935Z,1014.37
2022-10-13T06:32:18.291Z,1014.41
2022-10-13T06:33:17.919Z,1014.40
2022-10-13T06:34:17.923Z,1014.36
2022-10-13T06:35:17.916Z,1014.41
2022-10-13T06:36:17.920Z,1014.33
2022-10-13T06:37:17.912Z,1014.34
2022-10-13T06:38:17.924Z,1014.32
2022-10-13T06:39:17.913Z,1014.34
2022-10-13T06:40:17.935Z,1014.36
2022-10-13T06:41:17.902Z,1014.35
2022-10-13T06:42:18.579Z,1014.34
2022-10-13T06:43:17.904Z,1014.36
2022-10-13T06:44:17.899Z,1014.33
2022-10-13T06:45:17.917Z,1014.40
2022-10-13T06:46:17.895Z,1014.40
2022-10-13T06:47:17.895Z,1014.41
2022-10-13T06:48:17.898Z,1014.40
2022-10-13T06:49:17.897Z,1014.40
2022-10-13T06:50:17.892Z,1014.42
2022-10-13T06:51:17.885Z,1014.42
2022-10-13T06:52:18.205Z,1014.46
2022-10-13T06:53:17.880Z,1014.44
2022-10-13T06:54:17.886Z,1014.46
2022-10-13T06:55:17.882Z,1014.44
2022-10-13T06:56:17.891Z,1014.42
2022-10-13T06:57:17.884Z,1014.37
2022-10-13T06:58:17.874Z,1014.41
2022-10-13T06:59:17.871Z,1014.40
2022-10-13T07:00:17.874Z,1014.41
2022-10-13T07:01:17.865Z,1014.36
2022-10-13T07:02:18.259Z,1014.39
2022-10-13T07:03:17.875Z,1014.38
2022-10-13T07:04:17.861Z,1014.39
2022-10-13T07:05:17.858Z,1014.40
2022-10-13T07:06:17.867Z,1014.42
2022-10-13T07:07:17.853Z,1014.42
2022-10-13T07:08:17.851Z,1014.40
2022-10-13T07:09:17.843Z,1014.41
2022-10-13T07:10:17.852Z,1014.41
2022-10-13T07:11:17.875Z,1014.43
2022-10-13T07:12:18.447Z,1014.44
2022-10-13T07:13:17.879Z,1014.44
2022-10-13T07:14:17.845Z,1014.46
2022-10-13T07:15:17.835Z,1014.43
2022-10-13T07:16:17.823Z,1014.39
2022-10-13T07:17:18.159Z,1014.45
2022-10-13T07:18:17.826Z,1014.48
2022-10-13T07:19:17.876Z,1014.44
2022-10-13T07:20:17.815Z,1014.47
2022-10-13T07:21:17.825Z,1014.46
2022-10-13T07:22:17.820Z,1014.47
2022-10-13T07:23:17.813Z,1014.43
2022-10-13T07:24:17.805Z,1014.39
2022-10-13T07:25:17.805Z,1014.36
2022-10-13T07:26:17.820Z,1014.34
2022-10-13T07:27:17.803Z,1014.33
2022-10-13T07:28:17.885Z,1014.34
2022-10-13T07:29:17.795Z,1014.31
2022-10-13T07:30:17.813Z,1014.36
2022-10-13T07:31:17.799Z,1014.34
2022-10-13T07:32:17.792Z,1014.31
2022-10-13T07:33:17.791Z,1014.31
2022-10-13T07:34:17.789Z,1014.35
2022-10-13T07:35:17.788Z,1014.36
2022-10-13T07:36:17.781Z,1014.36
2022-10-13T07:37:18.297Z,1014.33
2022-10-13T07:38:17.789Z,1014.29
2022-10-13T07:39:17.779Z,1014.34
2022-10-13T07:40:17.769Z,1014.37
2022-10-13T07:41:17.768Z,1014.39
2022-10-13T07:42:17.771Z,1014.39
2022-10-13T07:43:17.778Z,1014.41
2022-10-13T07:44:17.790Z,1014.40
2022-10-13T07:45:17.788Z,1014.44
2022-10-13T07:46:17.751Z,1014.38
2022-10-13T07:47:18.091Z,1014.32
2022-10-13T07:48:17.904Z,1014.30
2022-10-13T07:49:17.814Z,1014.27
2022-10-13T07:50:17.745Z,1014.23
2022-10-13T07:51:17.744Z,1014.21
2022-10-13T07:52:18.184Z,1014.23
2022-10-13T07:53:17.743Z,1014.16
2022-10-13T07:54:17.750Z,1014.22
2022-10-13T07:55:17.735Z,1014.23
2022-10-13T07:56:17.725Z,1014.24
2022-10-13T07:57:17.742Z,1014.31
2022-10-13T07:58:17.733Z,1014.34
2022-10-13T07:59:17.727Z,1014.31
2022-10-13T08:00:17.734Z,1014.25
2022-10-13T08:01:17.828Z,1014.22
2022-10-13T08:02:18.048Z,1014.17
2022-10-13T08:03:17.718Z,1014.22
2022-10-13T08:04:17.708Z,1014.24
2022-10-13T08:05:17.776Z,1014.32
2022-10-13T08:06:17.716Z,1014.33
2022-10-13T08:07:17.976Z,1014.36
2022-10-13T08:08:17.705Z,1014.38
2022-10-13T08:09:17.712Z,1014.40
2022-10-13T08:10:17.700Z,1014.43
2022-10-13T08:11:17.756Z,1014.39
2022-10-13T08:12:18.159Z,1014.38
2022-10-13T08:13:17.687Z,1014.34
2022-10-13T08:14:17.710Z,1014.31
2022-10-13T08:15:17.692Z,1014.36
2022-10-13T08:16:17.716Z,1014.41
2022-10-13T08:17:18.007Z,1014.39
2022-10-13T08:18:17.673Z,1014.40
2022-10-13T08:19:17.672Z,1014.41
2022-10-13T08:20:17.678Z,1014.39
2022-10-13T08:22:17.680Z,1014.40
2022-10-13T08:23:17.659Z,1014.39
2022-10-13T08:24:17.673Z,1014.40
2022-10-13T08:25:17.710Z,1014.42
2022-10-13T08:26:17.666Z,1014.40
2022-10-13T08:27:18.148Z,1014.42
2022-10-13T08:28:17.741Z,1014.39
2022-10-13T08:29:22.048Z,1014.42
2022-10-13T08:30:17.689Z,1014.42
2022-10-13T08:31:17.844Z,1014.40
2022-10-13T08:32:18.034Z,1014.40
2022-10-13T08:33:17.661Z,1014.40
2022-10-13T08:34:17.635Z,1014.42
2022-10-13T08:35:17.635Z,1014.35
2022-10-13T08:36:17.636Z,1014.36
2022-10-13T08:37:17.632Z,1014.37
2022-10-13T08:38:17.635Z,1014.31
2022-10-13T08:39:17.627Z,1014.33
2022-10-13T08:40:17.661Z,1014.31
2022-10-13T08:41:17.620Z,1014.29
2022-10-13T08:42:17.998Z,1014.32
2022-10-13T08:43:17.610Z,1014.33
2022-10-13T08:46:17.603Z,1014.30
2022-10-13T08:47:17.608Z,1014.30
2022-10-13T08:48:17.625Z,1014.26
2022-10-13T08:49:17.597Z,1014.24
2022-10-13T08:50:17.699Z,1014.21
2022-10-13T08:51:17.595Z,1014.22
2022-10-13T08:52:17.907Z,1014.17
2022-10-13T08:53:17.598Z,1014.20
2022-10-13T08:54:17.587Z,1014.18
2022-10-13T08:55:17.582Z,1014.15
2022-10-13T08:56:17.598Z,1014.15
2022-10-13T08:57:17.808Z,1014.15
2022-10-13T08:58:17.580Z,1014.18
2022-10-13T08:59:17.600Z,1014.18
2022-10-13T09:00:17.580Z,1014.19
2022-10-13T09:01:17.663Z,1014.20
2022-10-13T09:02:17.583Z,1014.20
2022-10-13T09:03:17.565Z,1014.14
2022-10-13T09:04:17.627Z,1014.19
2022-10-13T09:05:17.600Z,1014.18
2022-10-13T09:06:17.596Z,1014.17
2022-10-13T09:07:17.844Z,1014.15
2022-10-13T09:08:17.616Z,1014.15
2022-10-13T09:09:17.571Z,1014.14
2022-10-13T09:10:17.552Z,1014.15
2022-10-13T09:11:17.563Z,1014.13
2022-10-13T09:12:17.986Z,1014.17
2022-10-13T09:13:17.590Z,1014.17
2022-10-13T09:14:17.545Z,1014.20
2022-10-13T09:15:17.529Z,1014.18
2022-10-13T09:16:17.566Z,1014.16
2022-10-13T09:17:17.567Z,1014.16
2022-10-13T09:18:17.525Z,1014.20
2022-10-13T09:19:17.529Z,1014.14
2022-10-13T09:20:17.549Z,1014.14
2022-10-13T09:21:17.522Z,1014.13
2022-10-13T09:22:17.780Z,1014.11
2022-10-13T09:23:17.533Z,1014.14
2022-10-13T09:24:17.522Z,1014.14
2022-10-13T09:25:17.511Z,1014.09
2022-10-13T09:26:17.533Z,1014.12
2022-10-13T09:27:17.514Z,1014.09
2022-10-13T09:28:17.568Z,1014.09
2022-10-13T09:29:17.581Z,1014.09
2022-10-13T09:30:17.500Z,1014.07
2022-10-13T09:31:17.493Z,1014.06
2022-10-13T09:32:17.744Z,1014.06
2022-10-13T09:33:17.503Z,1014.08
2022-10-13T09:34:17.496Z,1014.07
2022-10-13T09:35:17.489Z,1014.05
2022-10-13T09:36:17.514Z,1014.04
2022-10-13T09:37:17.478Z,1013.99
2022-10-13T09:38:17.516Z,1014.02
2022-10-13T09:39:17.515Z,1014.03
2022-10-13T09:40:17.469Z,1014.04
2022-10-13T09:41:17.473Z,1014.03
2022-10-13T09:42:17.893Z,1014.04
2022-10-13T09:43:17.466Z,1014.04
2022-10-13T09:44:17.471Z,1014.00
2022-10-13T09:45:17.483Z,1013.99
2022-10-13T09:46:17.470Z,1013.99
2022-10-13T09:47:17.453Z,1014.02
2022-10-13T09:48:17.459Z,1014.00
2022-10-13T09:49:17.455Z,1014.03
2022-10-13T09:50:17.443Z,1013.96
2022-10-13T09:51:17.441Z,1013.95
2022-10-13T09:52:17.742Z,1013.97
2022-10-13T09:53:17.448Z,1014.00
2022-10-13T09:54:17.442Z,1013.97
2022-10-13T09:55:17.430Z,1013.91
2022-10-13T09:56:17.431Z,1013.95
2022-10-13T09:57:17.427Z,1013.93
2022-10-13T09:58:17.437Z,1013.90
2022-10-13T09:59:17.421Z,1013.89
2022-10-13T10:00:17.428Z,1013.90
2022-10-13T10:01:17.417Z,1013.92
2022-10-13T10:02:19.432Z,1013.90
2022-10-13T10:03:17.414Z,1013.91
2022-10-13T10:04:17.465Z,1013.87
2022-10-13T10:05:17.422Z,1013.90
2022-10-13T10:06:17.413Z,1013.87
2022-10-13T10:07:17.769Z,1013.83
2022-10-13T10:08:17.419Z,1013.86
2022-10-13T10:09:17.413Z,1013.80
2022-10-13T10:10:17.405Z,1013.82
2022-10-13T10:11:17.402Z,1013.81
2022-10-13T10:12:17.401Z,1013.77
2022-10-13T10:13:17.439Z,1013.79
2022-10-13T10:14:17.389Z,1013.77
2022-10-13T10:15:17.389Z,1013.73
2022-10-13T10:16:17.398Z,1013.76
2022-10-13T10:17:17.735Z,1013.71
2022-10-13T10:18:17.378Z,1013.73
2022-10-13T10:19:17.379Z,1013.72
2022-10-13T10:20:17.382Z,1013.74
2022-10-13T10:21:17.387Z,1013.72
2022-10-13T10:22:17.392Z,1013.71
2022-10-13T10:23:17.364Z,1013.71
2022-10-13T10:24:17.382Z,1013.70
2022-10-13T10:25:17.360Z,1013.64
2022-10-13T10:26:22.232Z,1013.65
2022-10-13T10:27:17.741Z,1013.65
2022-10-13T10:28:17.443Z,1013.62
2022-10-13T10:29:17.354Z,1013.61
2022-10-13T10:30:17.362Z,1013.61
2022-10-13T10:31:17.355Z,1013.63
2022-10-13T10:32:17.714Z,1013.62
2022-10-13T10:33:17.340Z,1013.56
2022-10-13T10:34:17.341Z,1013.58
2022-10-13T10:35:17.349Z,1013.59
2022-10-13T10:36:17.339Z,1013.56
2022-10-13T10:37:21.219Z,1013.51
2022-10-13T10:38:17.334Z,1013.51
2022-10-13T10:39:17.324Z,1013.51
2022-10-13T10:40:17.358Z,1013.52
2022-10-13T10:41:17.327Z,1013.49
2022-10-13T10:42:17.703Z,1013.47
2022-10-13T10:43:17.328Z,1013.50
2022-10-13T10:44:17.321Z,1013.45
2022-10-13T10:45:17.340Z,1013.48
2022-10-13T10:46:17.326Z,1013.41
2022-10-13T10:47:19.737Z,1013.45
2022-10-13T10:48:17.314Z,1013.46
2022-10-13T10:49:17.317Z,1013.43
2022-10-13T10:50:17.299Z,1013.41
2022-10-13T10:51:17.304Z,1013.38
2022-10-13T10:52:58.042Z,1013.36
2022-10-13T10:53:58.056Z,1013.34
2022-10-13T10:54:58.037Z,1013.35
2022-10-13T10:55:58.057Z,1013.36
2022-10-13T10:56:58.032Z,1013.36
2022-10-13T10:57:58.034Z,1013.33
2022-10-13T10:58:58.020Z,1013.32
2022-10-13T10:59:58.026Z,1013.29
2022-10-13T11:00:58.023Z,1013.25
2022-10-13T11:01:58.021Z,1013.24
2022-10-13T11:02:58.014Z,1013.25
2022-10-13T11:03:58.018Z,1013.25
2022-10-13T11:05:02.109Z,1013.26
2022-10-13T11:05:58.006Z,1013.21
2022-10-13T11:06:58.009Z,1013.23
2022-10-13T11:07:58.014Z,1013.20
2022-10-13T11:08:57.998Z,1013.21
2022-10-13T11:09:57.995Z,1013.15
2022-10-13T11:10:58.002Z,1013.24
2022-10-13T11:11:58.012Z,1013.18
2022-10-13T11:12:57.999Z,1013.19
2022-10-13T11:13:57.997Z,1013.18
2022-10-13T11:14:57.986Z,1013.12
2022-10-13T11:15:57.981Z,1013.13
2022-10-13T11:16:57.989Z,1013.13
2022-10-13T11:17:57.977Z,1013.08
2022-10-13T11:18:57.971Z,1013.11
2022-10-13T11:19:58.031Z,1013.08
2022-10-13T11:20:57.979Z,1013.14
2022-10-13T11:21:57.969Z,1013.12
2022-10-13T11:22:57.974Z,1013.16
2022-10-13T11:24:01.863Z,1013.16
2022-10-13T11:24:57.957Z,1013.13
2022-10-13T11:25:57.971Z,1013.13
2022-10-13T11:26:57.964Z,1013.17
2022-10-13T11:27:57.992Z,1013.14
2022-10-13T11:28:57.950Z,1013.17
2022-10-13T11:29:58.019Z,1013.14
2022-10-13T11:30:57.948Z,1013.11
2022-10-13T11:31:57.942Z,1013.09
2022-10-13T11:32:57.957Z,1013.08
2022-10-13T11:33:57.936Z,1013.05
2022-10-13T11:34:57.999Z,1013.03
2022-10-13T11:35:57.932Z,1013.05
2022-10-13T11:36:57.930Z,1013.06
2022-10-13T11:38:07.142Z,1013.02
2022-10-13T11:38:57.930Z,1013.00
2022-10-13T11:39:57.933Z,1013.02
2022-10-13T11:40:57.916Z,1013.00
2022-10-13T11:41:57.925Z,1012.98
2022-10-13T11:42:59.262Z,1012.96
2022-10-13T11:43:57.940Z,1012.98
2022-10-13T11:44:57.916Z,1012.95
2022-10-13T11:45:57.914Z,1012.97
2022-10-13T11:46:57.909Z,1012.97
2022-10-13T11:47:57.956Z,1012.95
2022-10-13T11:48:57.906Z,1012.99
2022-10-13T11:49:57.910Z,1012.93
2022-10-13T11:50:57.901Z,1012.96
2022-10-13T11:51:57.892Z,1012.97
2022-10-13T11:52:57.901Z,1012.92
2022-10-13T11:53:57.897Z,1012.93
2022-10-13T11:54:57.895Z,1012.94
2022-10-13T11:55:57.881Z,1012.93
2022-10-13T11:56:57.877Z,1012.93
2022-10-13T11:57:57.883Z,1012.93
2022-10-13T11:58:57.880Z,1012.94
2022-10-13T11:59:57.895Z,1012.89
2022-10-13T12:00:57.873Z,1012.84
2022-10-13T12:01:57.879Z,1012.86
2022-10-13T12:02:57.914Z,1012.84
2022-10-13T12:03:57.873Z,1012.79
2022-10-13T12:04:57.869Z,1012.81
2022-10-13T12:05:57.858Z,1012.76
2022-10-13T12:06:57.860Z,1012.77
2022-10-13T12:07:57.861Z,1012.76
2022-10-13T12:08:57.860Z,1012.77